»·PEaware :: CGCMV CYLW-CBR2

CGCMV :: CYLW-CBR2

FLIGHT INFORMATION

Flight Status: Arrived
Operator: Unknown
More flights by this operator :: More flights under this callsign
Pilot: Sherman V. (22519)
Aircraft: BEECH AIRCRAFT BARON
(BE58)
More flights by this aircraft type
Origin: CYLW Kelowna
Canada
Destination: CBR2 Kaslo
Canada
More flights between these airports :: More routes between these airports
Route:
File this flight plan on PilotEdge
Remarks:
Altitude:
(Current/Filed)
11,000ft
Speed:
(Current/Filed)
160kts
Departed: 28-May-20 01:34 AM
Arrived: 28-May-20 02:11 AM
Distance/Time
Traveled:
96nm/0:37
Distance/Time
To Go:
Arrived

Flight Plot

Page will automatically refresh every two minutes.

Flight plan parsing failed; only flown route is shown


Map Options




Map Legend


Flown Route
Filed Route
Departure Airport
Arrival Airport
Navaid (VOR, NDB)
Fix

Horizontal Profiles

Position Reports

Time Latitude Longitude Heading Altitude Ground
Speed
28-May-20 01:27 49.966853 -119.381611 85 1413ft 0kts
28-May-20 01:28 49.966853 -119.381611 85 1413ft 0kts
28-May-20 01:29 49.966853 -119.381611 85 1413ft 0kts
28-May-20 01:30 49.966853 -119.381611 85 1413ft 0kts
28-May-20 01:31 49.966257 -119.380985 158 1413ft 10kts
28-May-20 01:32 49.965996 -119.379182 172 1413ft 0kts
28-May-20 01:33 49.946018 -119.376019 169 2113ft 114kts
28-May-20 01:34 49.924567 -119.351676 74 3787ft 115kts
28-May-20 01:35 49.937351 -119.308365 57 5409ft 111kts
28-May-20 01:36 49.951608 -119.267383 66 6868ft 111kts
28-May-20 01:37 49.955110 -119.218794 88 8060ft 126kts
28-May-20 01:38 49.954582 -119.161607 90 9089ft 137kts
28-May-20 01:39 49.953765 -119.101717 91 10069ft 140kts
28-May-20 01:40 49.952935 -119.041103 92 10927ft 145kts
28-May-20 01:41 49.951848 -118.970848 91 11054ft 175kts
28-May-20 01:42 49.950638 -118.892267 91 11046ft 188kts
28-May-20 01:43 49.949353 -118.810145 90 11000ft 190kts
28-May-20 01:44 49.947977 -118.728662 90 10997ft 188kts
28-May-20 01:45 49.946564 -118.647469 90 11001ft 188kts
28-May-20 01:46 49.945110 -118.566035 90 11007ft 189kts
28-May-20 01:47 49.943567 -118.484363 90 11020ft 189kts
28-May-20 01:48 49.942006 -118.402541 90 11041ft 189kts
28-May-20 01:49 49.940357 -118.320824 91 11061ft 189kts
28-May-20 01:50 49.938642 -118.239177 91 11067ft 189kts
28-May-20 01:51 49.936888 -118.157637 91 11067ft 189kts
28-May-20 01:52 49.935072 -118.075872 91 11067ft 189kts
28-May-20 01:53 49.933143 -117.993945 91 11067ft 189kts
28-May-20 01:54 49.931231 -117.912137 91 11054ft 190kts
28-May-20 01:55 49.929220 -117.829553 91 10993ft 190kts
28-May-20 01:56 49.927171 -117.747695 91 10992ft 190kts
28-May-20 01:58 49.925043 -117.665680 91 10993ft 190kts
28-May-20 01:59 49.922885 -117.584099 91 10993ft 190kts
28-May-20 02:00 49.920652 -117.502213 91 10995ft 190kts
28-May-20 02:01 49.918368 -117.420334 91 10994ft 190kts
28-May-20 02:02 49.915998 -117.338516 92 10992ft 190kts
28-May-20 02:03 49.913576 -117.256624 92 10992ft 189kts
28-May-20 02:04 49.911121 -117.174846 92 10991ft 190kts
28-May-20 02:05 49.908613 -117.093197 92 10972ft 185kts
28-May-20 02:06 49.900394 -117.013437 104 8425ft 190kts
28-May-20 02:07 49.885022 -116.938322 115 5104ft 162kts
28-May-20 02:08 49.875004 -116.887011 53 3135ft 102kts
28-May-20 02:09 49.896886 -116.893151 323 2991ft 92kts
28-May-20 02:10 49.903664 -116.929590 263 2366ft 80kts
28-May-20 02:11 49.903214 -116.943040 170 2429ft 0kts
28-May-20 02:12 49.903095 -116.942953 124 2429ft 3kts
28-May-20 02:13 49.903143 -116.937411 89 2415ft 25kts
28-May-20 02:14 49.903252 -116.928801 88 2363ft 27kts
28-May-20 02:15 49.903163 -116.927584 3 2355ft 0kts
28-May-20 02:16 49.903163 -116.927584 3 2355ft 0kts
28-May-20 02:17 49.903163 -116.927584 3 2355ft 0kts
28-May-20 02:17 49.903163 -116.927584 3 2355ft 0kts
28-May-20 02:19 49.903700 -116.927756 269 2354ft 0kts
28-May-20 02:19 49.903700 -116.927757 268 2354ft 0kts
28-May-20 02:21 49.906268 -116.943236 79 2463ft 100kts
28-May-20 02:21 49.910131 -116.911316 82 2749ft 89kts
28-May-20 02:22 49.916311 -116.877617 344 2787ft 101kts
28-May-20 02:23 49.896983 -116.886356 177 2912ft 102kts
28-May-20 02:24 49.885372 -116.899750 355 2992ft 105kts

Navigation Log

Ident Type
Flight plan parsing failed, navigation log unavailable